sensor_id;sensor_type;location;lat;lon;timestamp;P1;durP1;ratioP1;P2;durP2;ratioP2
26082;SDS011;13848;49.018;12.078;2024-01-15T00:02:06;36.85;;;14.30;;
26082;SDS011;13848;49.018;12.078;2024-01-15T00:04:35;33.35;;;13.98;;
26082;SDS011;13848;49.018;12.078;2024-01-15T00:07:02;37.28;;;15.07;;
26082;SDS011;13848;49.018;12.078;2024-01-15T00:09:28;40.05;;;15.10;;
26082;SDS011;13848;49.018;12.078;2024-01-15T00:11:54;34.58;;;13.98;;
26082;SDS011;13848;49.018;12.078;2024-01-15T00:14:20;35.38;;;14.32;;
26082;SDS011;13848;49.018;12.078;2024-01-15T00:16:46;34.17;;;14.30;;
26082;SDS011;13848;49.018;12.078;2024-01-15T00:19:13;37.03;;;13.40;;
26082;SDS011;13848;49.018;12.078;2024-01-15T00:21:39;34.70;;;14.15;;
26082;SDS011;13848;49.018;12.078;2024-01-15T00:24:05;34.85;;;15.10;;
26082;SDS011;13848;49.018;12.078;2024-01-15T00:26:31;36.20;;;13.85;;
26082;SDS011;13848;49.018;12.078;2024-01-15T00:28:57;36.25;;;13.77;;
26082;SDS011;13848;49.018;12.078;2024-01-15T00:31:23;37.85;;;13.60;;
26082;SDS011;13848;49.018;12.078;2024-01-15T00:33:49;34.40;;;12.38;;
26082;SDS011;13848;49.018;12.078;2024-01-15T00:36:16;31.75;;;11.70;;
26082;SDS011;13848;49.018;12.078;2024-01-15T00:38:43;31.70;;;12.30;;
26082;SDS011;13848;49.018;12.078;2024-01-15T00:41:09;29.88;;;12.63;;
26082;SDS011;13848;49.018;12.078;2024-01-15T00:43:35;30.70;;;12.02;;
26082;SDS011;13848;49.018;12.078;2024-01-15T00:46:01;32.67;;;12.32;;
26082;SDS011;13848;49.018;12.078;2024-01-15T00:48:27;31.80;;;13.27;;
26082;SDS011;13848;49.018;12.078;2024-01-15T00:50:53;34.58;;;13.07;;
26082;SDS011;13848;49.018;12.078;2024-01-15T00:53:20;35.47;;;12.75;;
26082;SDS011;13848;49.018;12.078;2024-01-15T00:55:46;31.63;;;12.00;;
26082;SDS011;13848;49.018;12.078;2024-01-15T00:58:12;39.03;;;14.00;;
26082;SDS011;13848;49.018;12.078;2024-01-15T01:00:38;32.70;;;12.50;;
26082;SDS011;13848;49.018;12.078;2024-01-15T01:03:04;33.25;;;12.07;;
26082;SDS011;13848;49.018;12.078;2024-01-15T01:05:30;40.97;;;13.40;;
26082;SDS011;13848;49.018;12.078;2024-01-15T01:07:56;34.85;;;12.70;;
26082;SDS011;13848;49.018;12.078;2024-01-15T01:10:23;32.90;;;12.95;;
26082;SDS011;13848;49.018;12.078;2024-01-15T01:12:49;31.77;;;11.98;;
26082;SDS011;13848;49.018;12.078;2024-01-15T01:15:15;33.22;;;12.23;;
26082;SDS011;13848;49.018;12.078;2024-01-15T01:17:41;33.97;;;12.18;;
26082;SDS011;13848;49.018;12.078;2024-01-15T01:20:07;39.45;;;13.40;;
26082;SDS011;13848;49.018;12.078;2024-01-15T01:22:34;30.83;;;11.98;;
26082;SDS011;13848;49.018;12.078;2024-01-15T01:25:00;34.53;;;12.30;;
26082;SDS011;13848;49.018;12.078;2024-01-15T01:27:27;34.38;;;12.13;;
26082;SDS011;13848;49.018;12.078;2024-01-15T01:29:53;33.30;;;11.45;;
26082;SDS011;13848;49.018;12.078;2024-01-15T01:32:19;34.22;;;12.65;;
26082;SDS011;13848;49.018;12.078;2024-01-15T01:34:45;32.90;;;12.05;;
26082;SDS011;13848;49.018;12.078;2024-01-15T01:37:11;30.55;;;11.05;;
26082;SDS011;13848;49.018;12.078;2024-01-15T01:39:38;41.35;;;12.70;;
26082;SDS011;13848;49.018;12.078;2024-01-15T01:42:04;32.00;;;11.70;;
26082;SDS011;13848;49.018;12.078;2024-01-15T01:44:31;36.92;;;13.18;;
26082;SDS011;13848;49.018;12.078;2024-01-15T01:46:57;29.23;;;11.48;;
26082;SDS011;13848;49.018;12.078;2024-01-15T01:49:25;38.28;;;12.25;;
26082;SDS011;13848;49.018;12.078;2024-01-15T01:51:52;32.22;;;11.60;;
26082;SDS011;13848;49.018;12.078;2024-01-15T01:54:18;33.75;;;11.98;;
26082;SDS011;13848;49.018;12.078;2024-01-15T01:56:46;33.78;;;11.88;;
26082;SDS011;13848;49.018;12.078;2024-01-15T01:59:13;30.98;;;11.48;;
26082;SDS011;13848;49.018;12.078;2024-01-15T02:01:41;32.10;;;10.73;;
26082;SDS011;13848;49.018;12.078;2024-01-15T02:04:08;31.73;;;11.50;;
26082;SDS011;13848;49.018;12.078;2024-01-15T02:06:34;41.60;;;12.82;;
26082;SDS011;13848;49.018;12.078;2024-01-15T02:09:00;32.08;;;11.45;;
26082;SDS011;13848;49.018;12.078;2024-01-15T02:11:26;33.67;;;11.68;;
26082;SDS011;13848;49.018;12.078;2024-01-15T02:13:52;35.20;;;11.65;;
26082;SDS011;13848;49.018;12.078;2024-01-15T02:16:18;29.40;;;10.82;;
26082;SDS011;13848;49.018;12.078;2024-01-15T02:18:46;31.38;;;10.80;;
26082;SDS011;13848;49.018;12.078;2024-01-15T02:21:12;30.38;;;10.65;;
26082;SDS011;13848;49.018;12.078;2024-01-15T02:23:39;34.08;;;11.02;;
26082;SDS011;13848;49.018;12.078;2024-01-15T02:26:05;29.77;;;10.63;;
26082;SDS011;13848;49.018;12.078;2024-01-15T02:28:33;28.25;;;10.50;;
26082;SDS011;13848;49.018;12.078;2024-01-15T02:30:59;30.23;;;11.38;;
26082;SDS011;13848;49.018;12.078;2024-01-15T02:33:25;29.58;;;10.18;;
26082;SDS011;13848;49.018;12.078;2024-01-15T02:35:51;27.15;;;9.15;;
26082;SDS011;13848;49.018;12.078;2024-01-15T02:38:17;32.08;;;11.55;;
26082;SDS011;13848;49.018;12.078;2024-01-15T02:40:45;24.75;;;10.15;;
26082;SDS011;13848;49.018;12.078;2024-01-15T02:43:11;26.77;;;10.10;;
26082;SDS011;13848;49.018;12.078;2024-01-15T02:45:37;25.70;;;9.90;;
26082;SDS011;13848;49.018;12.078;2024-01-15T02:48:03;30.42;;;10.63;;
26082;SDS011;13848;49.018;12.078;2024-01-15T02:50:29;31.63;;;11.20;;
26082;SDS011;13848;49.018;12.078;2024-01-15T02:52:55;25.52;;;10.18;;
26082;SDS011;13848;49.018;12.078;2024-01-15T02:55:21;25.27;;;9.35;;
26082;SDS011;13848;49.018;12.078;2024-01-15T02:57:48;23.10;;;9.93;;
26082;SDS011;13848;49.018;12.078;2024-01-15T03:00:14;24.17;;;9.60;;
26082;SDS011;13848;49.018;12.078;2024-01-15T03:02:40;28.15;;;11.13;;
26082;SDS011;13848;49.018;12.078;2024-01-15T03:05:06;27.20;;;9.90;;
26082;SDS011;13848;49.018;12.078;2024-01-15T03:07:33;24.67;;;9.85;;
26082;SDS011;13848;49.018;12.078;2024-01-15T03:09:59;24.35;;;9.25;;
26082;SDS011;13848;49.018;12.078;2024-01-15T03:12:25;21.45;;;8.82;;
26082;SDS011;13848;49.018;12.078;2024-01-15T03:14:52;25.30;;;9.45;;
26082;SDS011;13848;49.018;12.078;2024-01-15T03:17:18;23.10;;;8.52;;
26082;SDS011;13848;49.018;12.078;2024-01-15T03:19:44;22.08;;;8.45;;
26082;SDS011;13848;49.018;12.078;2024-01-15T03:22:10;26.63;;;8.82;;
26082;SDS011;13848;49.018;12.078;2024-01-15T03:24:36;24.42;;;9.25;;
26082;SDS011;13848;49.018;12.078;2024-01-15T03:27:02;24.92;;;9.10;;
26082;SDS011;13848;49.018;12.078;2024-01-15T03:29:29;25.45;;;8.68;;
26082;SDS011;13848;49.018;12.078;2024-01-15T03:31:56;22.63;;;8.02;;
26082;SDS011;13848;49.018;12.078;2024-01-15T03:34:22;21.77;;;8.45;;
26082;SDS011;13848;49.018;12.078;2024-01-15T03:36:48;18.70;;;8.00;;
26082;SDS011;13848;49.018;12.078;2024-01-15T03:39:14;16.27;;;7.85;;
26082;SDS011;13848;49.018;12.078;2024-01-15T03:41:40;20.70;;;8.05;;
26082;SDS011;13848;49.018;12.078;2024-01-15T03:44:06;21.38;;;8.80;;
26082;SDS011;13848;49.018;12.078;2024-01-15T03:46:32;19.83;;;7.43;;
26082;SDS011;13848;49.018;12.078;2024-01-15T03:48:59;22.70;;;8.90;;
26082;SDS011;13848;49.018;12.078;2024-01-15T03:51:25;23.55;;;8.10;;
26082;SDS011;13848;49.018;12.078;2024-01-15T03:53:51;19.52;;;8.52;;
26082;SDS011;13848;49.018;12.078;2024-01-15T03:56:17;20.73;;;7.78;;
26082;SDS011;13848;49.018;12.078;2024-01-15T03:58:43;19.33;;;7.72;;
26082;SDS011;13848;49.018;12.078;2024-01-15T04:01:09;25.27;;;8.20;;
26082;SDS011;13848;49.018;12.078;2024-01-15T04:03:35;22.77;;;8.23;;
26082;SDS011;13848;49.018;12.078;2024-01-15T04:06:03;19.48;;;7.53;;
26082;SDS011;13848;49.018;12.078;2024-01-15T04:08:30;20.33;;;7.35;;
26082;SDS011;13848;49.018;12.078;2024-01-15T04:10:56;21.10;;;7.70;;
26082;SDS011;13848;49.018;12.078;2024-01-15T04:13:22;21.92;;;7.82;;
26082;SDS011;13848;49.018;12.078;2024-01-15T04:15:48;21.77;;;7.97;;
26082;SDS011;13848;49.018;12.078;2024-01-15T04:18:15;20.35;;;7.80;;
26082;SDS011;13848;49.018;12.078;2024-01-15T04:20:41;21.10;;;7.18;;
26082;SDS011;13848;49.018;12.078;2024-01-15T04:23:09;21.25;;;6.13;;
26082;SDS011;13848;49.018;12.078;2024-01-15T04:25:35;18.50;;;7.22;;
26082;SDS011;13848;49.018;12.078;2024-01-15T04:28:00;18.27;;;6.80;;
26082;SDS011;13848;49.018;12.078;2024-01-15T04:30:26;15.90;;;7.28;;
26082;SDS011;13848;49.018;12.078;2024-01-15T04:32:52;17.10;;;7.53;;
26082;SDS011;13848;49.018;12.078;2024-01-15T04:35:18;18.55;;;7.35;;
26082;SDS011;13848;49.018;12.078;2024-01-15T04:37:44;19.17;;;7.25;;
26082;SDS011;13848;49.018;12.078;2024-01-15T04:40:12;16.88;;;6.40;;
26082;SDS011;13848;49.018;12.078;2024-01-15T04:42:38;21.75;;;7.80;;
26082;SDS011;13848;49.018;12.078;2024-01-15T04:45:04;15.25;;;6.60;;
26082;SDS011;13848;49.018;12.078;2024-01-15T04:47:30;17.58;;;6.85;;
26082;SDS011;13848;49.018;12.078;2024-01-15T04:49:56;18.63;;;6.95;;
26082;SDS011;13848;49.018;12.078;2024-01-15T04:52:22;17.83;;;7.25;;
26082;SDS011;13848;49.018;12.078;2024-01-15T04:54:48;16.75;;;7.15;;
26082;SDS011;13848;49.018;12.078;2024-01-15T04:57:16;22.67;;;8.38;;
26082;SDS011;13848;49.018;12.078;2024-01-15T04:59:41;19.00;;;7.25;;
26082;SDS011;13848;49.018;12.078;2024-01-15T05:02:07;16.38;;;7.03;;
26082;SDS011;13848;49.018;12.078;2024-01-15T05:04:33;18.42;;;6.68;;
26082;SDS011;13848;49.018;12.078;2024-01-15T05:06:59;18.65;;;7.53;;
26082;SDS011;13848;49.018;12.078;2024-01-15T05:09:25;14.98;;;7.05;;
26082;SDS011;13848;49.018;12.078;2024-01-15T05:11:51;21.20;;;8.25;;
26082;SDS011;13848;49.018;12.078;2024-01-15T05:14:18;17.75;;;7.13;;
26082;SDS011;13848;49.018;12.078;2024-01-15T05:16:46;23.23;;;8.07;;
26082;SDS011;13848;49.018;12.078;2024-01-15T05:19:12;21.45;;;7.75;;
26082;SDS011;13848;49.018;12.078;2024-01-15T05:21:38;21.15;;;7.35;;
26082;SDS011;13848;49.018;12.078;2024-01-15T05:24:04;18.10;;;7.07;;
26082;SDS011;13848;49.018;12.078;2024-01-15T05:26:30;22.13;;;7.32;;
26082;SDS011;13848;49.018;12.078;2024-01-15T05:28:56;18.60;;;8.05;;
26082;SDS011;13848;49.018;12.078;2024-01-15T05:31:24;18.25;;;6.55;;
26082;SDS011;13848;49.018;12.078;2024-01-15T05:33:50;17.10;;;6.60;;
26082;SDS011;13848;49.018;12.078;2024-01-15T05:36:16;17.75;;;7.47;;
26082;SDS011;13848;49.018;12.078;2024-01-15T05:38:42;14.43;;;6.43;;
26082;SDS011;13848;49.018;12.078;2024-01-15T05:41:07;17.58;;;6.18;;
26082;SDS011;13848;49.018;12.078;2024-01-15T05:43:33;17.15;;;6.60;;
26082;SDS011;13848;49.018;12.078;2024-01-15T05:45:59;16.65;;;6.60;;
26082;SDS011;13848;49.018;12.078;2024-01-15T05:48:26;16.83;;;6.97;;
26082;SDS011;13848;49.018;12.078;2024-01-15T05:50:52;17.40;;;7.00;;
26082;SDS011;13848;49.018;12.078;2024-01-15T05:53:18;16.55;;;6.28;;
26082;SDS011;13848;49.018;12.078;2024-01-15T05:55:44;15.95;;;6.13;;
26082;SDS011;13848;49.018;12.078;2024-01-15T05:58:10;20.10;;;7.60;;
26082;SDS011;13848;49.018;12.078;2024-01-15T06:00:36;19.55;;;6.47;;
26082;SDS011;13848;49.018;12.078;2024-01-15T06:03:02;17.70;;;7.10;;
26082;SDS011;13848;49.018;12.078;2024-01-15T06:05:29;14.25;;;6.22;;
26082;SDS011;13848;49.018;12.078;2024-01-15T06:07:55;16.90;;;7.38;;
26082;SDS011;13848;49.018;12.078;2024-01-15T06:10:21;15.48;;;6.38;;
26082;SDS011;13848;49.018;12.078;2024-01-15T06:12:47;13.65;;;6.28;;
26082;SDS011;13848;49.018;12.078;2024-01-15T06:15:13;17.52;;;6.82;;
26082;SDS011;13848;49.018;12.078;2024-01-15T06:17:39;16.23;;;5.57;;
26082;SDS011;13848;49.018;12.078;2024-01-15T06:20:06;18.67;;;7.10;;
26082;SDS011;13848;49.018;12.078;2024-01-15T06:22:34;14.13;;;6.20;;
26082;SDS011;13848;49.018;12.078;2024-01-15T06:25:00;15.55;;;5.97;;
26082;SDS011;13848;49.018;12.078;2024-01-15T06:27:26;13.07;;;5.97;;
26082;SDS011;13848;49.018;12.078;2024-01-15T06:29:52;13.77;;;6.45;;
26082;SDS011;13848;49.018;12.078;2024-01-15T06:32:18;14.32;;;5.53;;
26082;SDS011;13848;49.018;12.078;2024-01-15T06:34:44;16.50;;;6.57;;
26082;SDS011;13848;49.018;12.078;2024-01-15T06:37:09;13.43;;;5.38;;
26082;SDS011;13848;49.018;12.078;2024-01-15T06:39:37;14.38;;;5.63;;
26082;SDS011;13848;49.018;12.078;2024-01-15T06:42:03;12.18;;;5.63;;
26082;SDS011;13848;49.018;12.078;2024-01-15T06:44:29;17.10;;;6.18;;
26082;SDS011;13848;49.018;12.078;2024-01-15T06:46:55;14.93;;;5.82;;
26082;SDS011;13848;49.018;12.078;2024-01-15T06:49:21;23.45;;;8.45;;
26082;SDS011;13848;49.018;12.078;2024-01-15T06:51:47;16.45;;;6.85;;
26082;SDS011;13848;49.018;12.078;2024-01-15T06:54:13;14.23;;;6.07;;
26082;SDS011;13848;49.018;12.078;2024-01-15T06:56:40;13.30;;;5.53;;
26082;SDS011;13848;49.018;12.078;2024-01-15T06:59:06;11.15;;;5.63;;
26082;SDS011;13848;49.018;12.078;2024-01-15T07:01:32;13.73;;;5.75;;
26082;SDS011;13848;49.018;12.078;2024-01-15T07:03:58;14.27;;;5.55;;
26082;SDS011;13848;49.018;12.078;2024-01-15T07:06:24;13.80;;;6.13;;
26082;SDS011;13848;49.018;12.078;2024-01-15T07:08:50;10.93;;;4.85;;
26082;SDS011;13848;49.018;12.078;2024-01-15T07:11:16;12.18;;;5.45;;
26082;SDS011;13848;49.018;12.078;2024-01-15T07:13:43;11.73;;;5.30;;
26082;SDS011;13848;49.018;12.078;2024-01-15T07:16:09;11.10;;;5.25;;
26082;SDS011;13848;49.018;12.078;2024-01-15T07:18:35;12.32;;;5.30;;
26082;SDS011;13848;49.018;12.078;2024-01-15T07:21:01;14.10;;;5.68;;
26082;SDS011;13848;49.018;12.078;2024-01-15T07:23:27;13.73;;;6.13;;
26082;SDS011;13848;49.018;12.078;2024-01-15T07:25:53;13.02;;;5.38;;
26082;SDS011;13848;49.018;12.078;2024-01-15T07:28:19;11.35;;;5.03;;
26082;SDS011;13848;49.018;12.078;2024-01-15T07:30:46;9.63;;;4.82;;
26082;SDS011;13848;49.018;12.078;2024-01-15T07:33:12;11.25;;;5.07;;
26082;SDS011;13848;49.018;12.078;2024-01-15T07:35:38;11.27;;;4.75;;
26082;SDS011;13848;49.018;12.078;2024-01-15T07:38:04;8.63;;;4.85;;
26082;SDS011;13848;49.018;12.078;2024-01-15T07:40:30;11.93;;;4.80;;
26082;SDS011;13848;49.018;12.078;2024-01-15T07:42:56;10.55;;;4.55;;
26082;SDS011;13848;49.018;12.078;2024-01-15T07:45:22;15.05;;;4.97;;
26082;SDS011;13848;49.018;12.078;2024-01-15T07:47:49;10.25;;;4.72;;
26082;SDS011;13848;49.018;12.078;2024-01-15T07:50:15;11.38;;;4.72;;
26082;SDS011;13848;49.018;12.078;2024-01-15T07:52:41;12.57;;;4.68;;
26082;SDS011;13848;49.018;12.078;2024-01-15T07:55:07;14.93;;;4.70;;
26082;SDS011;13848;49.018;12.078;2024-01-15T07:57:33;11.57;;;4.80;;
26082;SDS011;13848;49.018;12.078;2024-01-15T07:59:59;12.82;;;5.30;;
26082;SDS011;13848;49.018;12.078;2024-01-15T08:02:25;11.13;;;4.38;;
26082;SDS011;13848;49.018;12.078;2024-01-15T08:04:52;11.70;;;4.97;;
26082;SDS011;13848;49.018;12.078;2024-01-15T08:07:18;12.13;;;4.95;;
26082;SDS011;13848;49.018;12.078;2024-01-15T08:09:44;8.13;;;4.00;;
26082;SDS011;13848;49.018;12.078;2024-01-15T08:12:10;9.15;;;4.18;;
26082;SDS011;13848;49.018;12.078;2024-01-15T08:14:36;10.23;;;4.70;;
26082;SDS011;13848;49.018;12.078;2024-01-15T08:17:02;9.63;;;4.35;;
26082;SDS011;13848;49.018;12.078;2024-01-15T08:19:28;10.32;;;4.70;;
26082;SDS011;13848;49.018;12.078;2024-01-15T08:21:55;7.72;;;3.78;;
26082;SDS011;13848;49.018;12.078;2024-01-15T08:24:21;8.35;;;4.20;;
26082;SDS011;13848;49.018;12.078;2024-01-15T08:26:47;8.32;;;4.18;;
26082;SDS011;13848;49.018;12.078;2024-01-15T08:29:13;8.70;;;4.15;;
26082;SDS011;13848;49.018;12.078;2024-01-15T08:31:39;7.72;;;3.75;;
26082;SDS011;13848;49.018;12.078;2024-01-15T08:34:05;9.13;;;3.95;;
26082;SDS011;13848;49.018;12.078;2024-01-15T08:36:31;8.40;;;3.60;;
26082;SDS011;13848;49.018;12.078;2024-01-15T08:38:58;7.90;;;3.75;;
26082;SDS011;13848;49.018;12.078;2024-01-15T08:41:24;8.07;;;3.85;;
26082;SDS011;13848;49.018;12.078;2024-01-15T08:43:50;8.00;;;3.20;;
26082;SDS011;13848;49.018;12.078;2024-01-15T08:46:16;9.20;;;3.78;;
26082;SDS011;13848;49.018;12.078;2024-01-15T08:48:42;10.25;;;4.50;;
26082;SDS011;13848;49.018;12.078;2024-01-15T08:51:08;9.73;;;4.13;;
26082;SDS011;13848;49.018;12.078;2024-01-15T08:53:34;9.07;;;3.60;;
26082;SDS011;13848;49.018;12.078;2024-01-15T08:56:01;8.77;;;4.43;;
26082;SDS011;13848;49.018;12.078;2024-01-15T08:58:27;9.60;;;3.97;;
26082;SDS011;13848;49.018;12.078;2024-01-15T09:00:53;9.55;;;4.32;;
26082;SDS011;13848;49.018;12.078;2024-01-15T09:03:19;8.15;;;3.70;;
26082;SDS011;13848;49.018;12.078;2024-01-15T09:05:45;7.07;;;3.40;;
26082;SDS011;13848;49.018;12.078;2024-01-15T09:08:11;8.88;;;4.00;;
26082;SDS011;13848;49.018;12.078;2024-01-15T09:10:36;8.43;;;3.97;;
26082;SDS011;13848;49.018;12.078;2024-01-15T09:13:04;6.70;;;3.55;;
26082;SDS011;13848;49.018;12.078;2024-01-15T09:15:30;11.18;;;4.40;;
26082;SDS011;13848;49.018;12.078;2024-01-15T09:17:56;11.15;;;3.92;;
26082;SDS011;13848;49.018;12.078;2024-01-15T09:20:22;13.25;;;4.13;;
26082;SDS011;13848;49.018;12.078;2024-01-15T09:22:48;8.88;;;3.67;;
26082;SDS011;13848;49.018;12.078;2024-01-15T09:25:14;12.48;;;4.32;;
26082;SDS011;13848;49.018;12.078;2024-01-15T09:27:40;7.55;;;3.40;;
26082;SDS011;13848;49.018;12.078;2024-01-15T09:30:07;9.57;;;4.28;;
26082;SDS011;13848;49.018;12.078;2024-01-15T09:32:34;9.75;;;3.78;;
26082;SDS011;13848;49.018;12.078;2024-01-15T09:35:00;8.68;;;3.67;;
26082;SDS011;13848;49.018;12.078;2024-01-15T09:37:26;9.85;;;4.38;;
26082;SDS011;13848;49.018;12.078;2024-01-15T09:39:52;7.80;;;3.60;;
26082;SDS011;13848;49.018;12.078;2024-01-15T09:42:18;8.23;;;4.05;;
26082;SDS011;13848;49.018;12.078;2024-01-15T09:44:44;8.90;;;4.13;;
26082;SDS011;13848;49.018;12.078;2024-01-15T09:47:13;9.10;;;3.65;;
26082;SDS011;13848;49.018;12.078;2024-01-15T09:49:40;8.68;;;3.55;;
26082;SDS011;13848;49.018;12.078;2024-01-15T09:52:06;7.85;;;3.72;;
26082;SDS011;13848;49.018;12.078;2024-01-15T09:54:33;7.22;;;3.50;;
26082;SDS011;13848;49.018;12.078;2024-01-15T09:56:59;8.35;;;3.53;;
26082;SDS011;13848;49.018;12.078;2024-01-15T09:59:26;8.85;;;3.75;;
26082;SDS011;13848;49.018;12.078;2024-01-15T10:01:53;8.27;;;3.55;;
26082;SDS011;13848;49.018;12.078;2024-01-15T10:04:22;9.13;;;3.65;;
26082;SDS011;13848;49.018;12.078;2024-01-15T10:06:48;7.53;;;3.40;;
26082;SDS011;13848;49.018;12.078;2024-01-15T10:09:17;8.48;;;3.47;;
26082;SDS011;13848;49.018;12.078;2024-01-15T10:11:43;8.02;;;3.85;;
26082;SDS011;13848;49.018;12.078;2024-01-15T10:14:10;7.65;;;3.25;;
26082;SDS011;13848;49.018;12.078;2024-01-15T10:16:37;10.40;;;3.47;;
26082;SDS011;13848;49.018;12.078;2024-01-15T10:19:03;8.45;;;3.78;;
26082;SDS011;13848;49.018;12.078;2024-01-15T10:21:31;8.63;;;4.25;;
26082;SDS011;13848;49.018;12.078;2024-01-15T10:23:57;9.23;;;3.92;;
26082;SDS011;13848;49.018;12.078;2024-01-15T10:26:26;8.80;;;3.92;;
26082;SDS011;13848;49.018;12.078;2024-01-15T10:28:52;6.85;;;3.35;;
26082;SDS011;13848;49.018;12.078;2024-01-15T10:31:18;7.82;;;4.10;;
26082;SDS011;13848;49.018;12.078;2024-01-15T10:33:44;7.03;;;3.55;;
26082;SDS011;13848;49.018;12.078;2024-01-15T10:36:10;8.90;;;4.10;;
26082;SDS011;13848;49.018;12.078;2024-01-15T10:38:37;7.80;;;3.90;;
26082;SDS011;13848;49.018;12.078;2024-01-15T10:41:03;7.88;;;3.85;;
26082;SDS011;13848;49.018;12.078;2024-01-15T10:43:29;7.13;;;3.50;;
26082;SDS011;13848;49.018;12.078;2024-01-15T10:45:55;7.30;;;3.53;;
26082;SDS011;13848;49.018;12.078;2024-01-15T10:48:21;8.75;;;3.50;;
26082;SDS011;13848;49.018;12.078;2024-01-15T10:50:47;7.90;;;3.78;;
26082;SDS011;13848;49.018;12.078;2024-01-15T10:53:15;10.10;;;3.40;;
26082;SDS011;13848;49.018;12.078;2024-01-15T10:55:43;8.00;;;3.38;;
26082;SDS011;13848;49.018;12.078;2024-01-15T10:58:11;7.03;;;2.97;;
26082;SDS011;13848;49.018;12.078;2024-01-15T11:00:39;6.90;;;3.38;;
26082;SDS011;13848;49.018;12.078;2024-01-15T11:03:05;7.18;;;3.20;;
26082;SDS011;13848;49.018;12.078;2024-01-15T11:05:33;5.55;;;3.00;;
26082;SDS011;13848;49.018;12.078;2024-01-15T11:07:59;6.38;;;3.00;;
26082;SDS011;13848;49.018;12.078;2024-01-15T11:10:39;7.20;;;3.05;;
26082;SDS011;13848;49.018;12.078;2024-01-15T11:13:09;5.72;;;2.80;;
26082;SDS011;13848;49.018;12.078;2024-01-15T11:18:27;8.85;;;3.47;;
26082;SDS011;13848;49.018;12.078;2024-01-15T11:23:46;6.53;;;3.20;;
26082;SDS011;13848;49.018;12.078;2024-01-15T11:26:29;6.93;;;3.35;;
26082;SDS011;13848;49.018;12.078;2024-01-15T11:29:03;5.75;;;2.42;;
26082;SDS011;13848;49.018;12.078;2024-01-15T11:37:18;5.47;;;2.90;;
26082;SDS011;13848;49.018;12.078;2024-01-15T11:39:45;6.00;;;2.80;;
26082;SDS011;13848;49.018;12.078;2024-01-15T11:42:11;5.40;;;3.15;;
26082;SDS011;13848;49.018;12.078;2024-01-15T11:44:39;7.28;;;2.72;;
26082;SDS011;13848;49.018;12.078;2024-01-15T11:47:06;4.85;;;3.05;;
26082;SDS011;13848;49.018;12.078;2024-01-15T11:49:37;9.10;;;3.35;;
26082;SDS011;13848;49.018;12.078;2024-01-15T11:52:25;6.53;;;3.17;;
26082;SDS011;13848;49.018;12.078;2024-01-15T11:54:52;8.07;;;3.58;;
26082;SDS011;13848;49.018;12.078;2024-01-15T11:57:25;4.75;;;2.75;;
26082;SDS011;13848;49.018;12.078;2024-01-15T11:59:59;5.72;;;3.00;;
26082;SDS011;13848;49.018;12.078;2024-01-15T12:02:25;7.40;;;3.33;;
26082;SDS011;13848;49.018;12.078;2024-01-15T12:04:51;5.65;;;2.58;;
26082;SDS011;13848;49.018;12.078;2024-01-15T12:07:17;6.20;;;3.13;;
26082;SDS011;13848;49.018;12.078;2024-01-15T12:09:43;7.72;;;3.00;;
26082;SDS011;13848;49.018;12.078;2024-01-15T12:12:09;5.68;;;3.15;;
26082;SDS011;13848;49.018;12.078;2024-01-15T12:14:45;13.05;;;5.22;;
26082;SDS011;13848;49.018;12.078;2024-01-15T12:17:12;6.95;;;3.28;;
26082;SDS011;13848;49.018;12.078;2024-01-15T12:19:38;4.53;;;2.80;;
26082;SDS011;13848;49.018;12.078;2024-01-15T12:22:04;5.32;;;2.60;;
26082;SDS011;13848;49.018;12.078;2024-01-15T12:24:30;5.88;;;2.83;;
26082;SDS011;13848;49.018;12.078;2024-01-15T12:26:56;15.65;;;4.07;;
26082;SDS011;13848;49.018;12.078;2024-01-15T12:29:22;5.93;;;3.45;;
26082;SDS011;13848;49.018;12.078;2024-01-15T12:31:48;7.55;;;3.53;;
26082;SDS011;13848;49.018;12.078;2024-01-15T12:34:16;5.60;;;2.40;;
26082;SDS011;13848;49.018;12.078;2024-01-15T12:36:42;6.45;;;2.85;;
26082;SDS011;13848;49.018;12.078;2024-01-15T12:39:11;5.30;;;2.60;;
26082;SDS011;13848;49.018;12.078;2024-01-15T12:41:37;4.85;;;2.63;;
26082;SDS011;13848;49.018;12.078;2024-01-15T12:44:03;6.35;;;3.17;;
26082;SDS011;13848;49.018;12.078;2024-01-15T12:46:31;6.75;;;3.00;;
26082;SDS011;13848;49.018;12.078;2024-01-15T12:48:58;6.20;;;2.97;;
26082;SDS011;13848;49.018;12.078;2024-01-15T12:51:25;5.95;;;2.58;;
26082;SDS011;13848;49.018;12.078;2024-01-15T12:53:51;4.32;;;2.42;;
26082;SDS011;13848;49.018;12.078;2024-01-15T12:56:18;3.53;;;2.38;;
26082;SDS011;13848;49.018;12.078;2024-01-15T12:58:44;5.60;;;2.40;;
26082;SDS011;13848;49.018;12.078;2024-01-15T13:01:10;4.40;;;2.53;;
26082;SDS011;13848;49.018;12.078;2024-01-15T13:03:36;5.80;;;2.55;;
26082;SDS011;13848;49.018;12.078;2024-01-15T13:06:02;4.90;;;2.30;;
26082;SDS011;13848;49.018;12.078;2024-01-15T13:08:29;6.38;;;3.47;;
26082;SDS011;13848;49.018;12.078;2024-01-15T13:10:56;4.55;;;2.20;;
26082;SDS011;13848;49.018;12.078;2024-01-15T13:13:22;20.98;;;13.63;;
26082;SDS011;13848;49.018;12.078;2024-01-15T13:15:48;5.55;;;3.00;;
26082;SDS011;13848;49.018;12.078;2024-01-15T13:18:14;5.13;;;2.40;;
26082;SDS011;13848;49.018;12.078;2024-01-15T13:20:41;4.78;;;2.65;;
26082;SDS011;13848;49.018;12.078;2024-01-15T13:23:07;5.55;;;2.58;;
26082;SDS011;13848;49.018;12.078;2024-01-15T13:25:35;5.50;;;2.60;;
26082;SDS011;13848;49.018;12.078;2024-01-15T13:28:01;4.22;;;2.55;;
26082;SDS011;13848;49.018;12.078;2024-01-15T13:30:27;5.75;;;3.03;;
26082;SDS011;13848;49.018;12.078;2024-01-15T13:32:53;4.82;;;2.72;;
26082;SDS011;13848;49.018;12.078;2024-01-15T13:35:19;6.80;;;2.92;;
26082;SDS011;13848;49.018;12.078;2024-01-15T13:37:44;4.78;;;2.50;;
26082;SDS011;13848;49.018;12.078;2024-01-15T13:40:11;4.95;;;2.40;;
26082;SDS011;13848;49.018;12.078;2024-01-15T13:42:38;6.32;;;2.70;;
26082;SDS011;13848;49.018;12.078;2024-01-15T13:45:04;5.60;;;2.83;;
26082;SDS011;13848;49.018;12.078;2024-01-15T13:47:30;8.18;;;3.10;;
26082;SDS011;13848;49.018;12.078;2024-01-15T13:49:56;6.20;;;2.80;;
26082;SDS011;13848;49.018;12.078;2024-01-15T13:52:23;6.30;;;3.30;;
26082;SDS011;13848;49.018;12.078;2024-01-15T13:54:49;6.50;;;2.75;;
26082;SDS011;13848;49.018;12.078;2024-01-15T13:57:15;5.32;;;2.75;;
26082;SDS011;13848;49.018;12.078;2024-01-15T13:59:42;6.28;;;2.42;;
26082;SDS011;13848;49.018;12.078;2024-01-15T14:02:08;7.22;;;2.78;;
26082;SDS011;13848;49.018;12.078;2024-01-15T14:04:34;4.82;;;2.75;;
26082;SDS011;13848;49.018;12.078;2024-01-15T14:07:00;6.03;;;2.70;;
26082;SDS011;13848;49.018;12.078;2024-01-15T14:09:26;8.00;;;3.25;;
26082;SDS011;13848;49.018;12.078;2024-01-15T14:11:52;5.03;;;2.97;;
26082;SDS011;13848;49.018;12.078;2024-01-15T14:14:18;4.38;;;2.88;;
26082;SDS011;13848;49.018;12.078;2024-01-15T14:16:45;8.85;;;2.70;;
26082;SDS011;13848;49.018;12.078;2024-01-15T14:19:11;7.97;;;3.28;;
26082;SDS011;13848;49.018;12.078;2024-01-15T14:21:37;5.55;;;2.85;;
26082;SDS011;13848;49.018;12.078;2024-01-15T14:24:03;5.38;;;3.13;;
26082;SDS011;13848;49.018;12.078;2024-01-15T14:26:29;6.90;;;2.95;;
26082;SDS011;13848;49.018;12.078;2024-01-15T14:28:55;6.07;;;2.63;;
26082;SDS011;13848;49.018;12.078;2024-01-15T14:31:21;8.02;;;3.08;;